Miner, Missouri
Current Conditions -  °F | °C
As of 1:53 AM on Saturday 20 Dec 2014 (Local Time) from KCGI Reporting Station
Overcast Overcast  
Wind Chill: 36°   Ceiling: 3800
Heat Index: 36°   Visibility: 10mi
Dew Point: 30°   Wind: 3mph
Humidity: 79%   Direction: 70°ENE
Pressure: 30.26"   Gusts: NA
Location:  36.9406°N, 89.5948°W
Report Text: KCGI 200753Z AUTO 07003KT 10SM BKN038 OVC060 02/M01 A3026 RMK AO2 SLP249 T00221011 TSNO
Loading
Personal Weather Stations






























Interactive Weather Map New forecast layout! Learn more

10-Day Weather Forecast

Advertisements
Track Severe Weather on mobile